createdAt,value
2019-03-20T00:00:50.773Z,99.90
2019-03-20T00:03:18.776Z,99.90
2019-03-20T00:05:46.870Z,99.90
2019-03-20T00:08:15.280Z,99.90
2019-03-20T00:10:43.616Z,99.90
2019-03-20T00:13:13.358Z,99.90
2019-03-20T00:15:41.194Z,99.90
2019-03-20T00:18:08.871Z,99.90
2019-03-20T00:20:36.528Z,99.90
2019-03-20T00:23:04.038Z,99.90
2019-03-20T00:25:33.443Z,99.90
2019-03-20T00:28:01.274Z,99.90
2019-03-20T00:30:29.578Z,99.90
2019-03-20T00:32:57.733Z,99.90
2019-03-20T00:35:25.351Z,99.90
2019-03-20T00:37:52.862Z,99.90
2019-03-20T00:40:20.759Z,99.90
2019-03-20T00:42:49.430Z,99.90
2019-03-20T00:45:17.283Z,99.90
2019-03-20T00:47:45.070Z,99.90
2019-03-20T00:50:14.151Z,99.90
2019-03-20T00:52:42.460Z,99.90
2019-03-20T00:55:10.768Z,99.90
2019-03-20T00:57:38.954Z,99.90
2019-03-20T01:00:11.004Z,99.90
2019-03-20T01:02:38.927Z,99.90
2019-03-20T01:05:12.419Z,99.90
2019-03-20T01:07:36.470Z,99.90
2019-03-20T01:10:06.595Z,99.90
2019-03-20T01:12:34.648Z,99.90
2019-03-20T01:15:02.549Z,99.90
2019-03-20T01:17:30.081Z,99.90
2019-03-20T01:19:58.019Z,99.90
2019-03-20T01:22:27.055Z,99.90
2019-03-20T01:24:55.951Z,99.90
2019-03-20T01:27:23.820Z,99.90
2019-03-20T01:29:52.263Z,99.90
2019-03-20T01:32:20.384Z,99.90
2019-03-20T01:34:48.114Z,99.90
2019-03-20T01:37:16.176Z,99.90
2019-03-20T01:39:49.737Z,99.90
2019-03-20T01:42:18.199Z,99.90
2019-03-20T01:44:46.035Z,99.90
2019-03-20T01:47:14.280Z,99.90
2019-03-20T01:49:41.709Z,99.90
2019-03-20T01:52:09.589Z,99.90
2019-03-20T01:54:37.273Z,99.90
2019-03-20T01:57:04.736Z,99.90
2019-03-20T01:59:32.429Z,99.90
2019-03-20T02:02:00.276Z,99.90
2019-03-20T02:04:27.771Z,99.90
2019-03-20T02:06:55.338Z,99.90
2019-03-20T02:09:23.175Z,99.90
2019-03-20T02:11:51.305Z,99.90
2019-03-20T02:14:19.039Z,99.90
2019-03-20T02:16:47.069Z,99.90
2019-03-20T02:19:14.949Z,99.90
2019-03-20T02:21:42.722Z,99.90
2019-03-20T02:24:10.531Z,99.90
2019-03-20T02:26:38.613Z,99.90
2019-03-20T02:29:06.770Z,99.90
2019-03-20T02:31:34.512Z,99.90
2019-03-20T02:34:01.907Z,99.90
2019-03-20T02:36:29.649Z,99.90
2019-03-20T02:38:57.814Z,99.90
2019-03-20T02:41:26.159Z,99.90
2019-03-20T02:43:53.774Z,99.90
2019-03-20T02:46:21.658Z,99.90
2019-03-20T02:48:49.755Z,99.90
2019-03-20T02:51:17.177Z,99.90
2019-03-20T02:53:44.479Z,99.90
2019-03-20T02:56:12.550Z,99.90
2019-03-20T02:58:41.042Z,99.90
2019-03-20T03:01:09.173Z,99.90
2019-03-20T03:03:37.092Z,99.90
2019-03-20T03:06:07.329Z,99.90
2019-03-20T03:08:34.929Z,99.90
2019-03-20T03:11:02.358Z,99.90
2019-03-20T03:13:30.624Z,99.90
2019-03-20T03:15:58.873Z,99.90
2019-03-20T03:18:26.316Z,99.90
2019-03-20T03:20:54.344Z,99.90
2019-03-20T03:23:22.236Z,99.90
2019-03-20T03:25:51.019Z,99.90
2019-03-20T03:28:18.819Z,99.90
2019-03-20T03:30:46.890Z,99.90
2019-03-20T03:33:14.949Z,99.90
2019-03-20T03:35:42.666Z,99.90
2019-03-20T03:38:10.597Z,99.90
2019-03-20T03:40:38.133Z,99.90
2019-03-20T03:43:05.706Z,99.90
2019-03-20T03:45:33.539Z,99.90
2019-03-20T03:48:01.613Z,99.90
2019-03-20T03:50:29.475Z,99.90
2019-03-20T03:52:57.363Z,99.90
2019-03-20T03:55:26.813Z,99.90
2019-03-20T03:57:54.450Z,99.90
2019-03-20T04:00:22.037Z,99.90
2019-03-20T04:02:50.016Z,99.90
2019-03-20T04:05:17.895Z,99.90
2019-03-20T04:07:46.595Z,99.90
2019-03-20T04:10:14.073Z,99.90
2019-03-20T04:12:41.817Z,99.90
2019-03-20T04:15:10.825Z,99.90
2019-03-20T04:17:39.212Z,99.90
2019-03-20T04:20:09.616Z,99.90
2019-03-20T04:22:37.516Z,99.90
2019-03-20T04:25:05.370Z,99.90
2019-03-20T04:27:33.406Z,99.90
2019-03-20T04:30:01.924Z,99.90
2019-03-20T04:32:29.625Z,99.90
2019-03-20T04:34:56.982Z,99.90
2019-03-20T04:37:24.446Z,99.90
2019-03-20T04:39:51.773Z,99.90
2019-03-20T04:42:19.374Z,99.90
2019-03-20T04:44:47.331Z,99.90
2019-03-20T04:47:15.140Z,99.90
2019-03-20T04:49:42.843Z,99.90
2019-03-20T04:52:10.818Z,99.90
2019-03-20T04:54:38.883Z,99.90
2019-03-20T04:57:08.744Z,99.90
2019-03-20T04:59:36.904Z,99.90
2019-03-20T05:02:05.292Z,99.90
2019-03-20T05:04:33.341Z,99.90
2019-03-20T05:07:01.128Z,99.90
2019-03-20T05:09:29.114Z,99.90
2019-03-20T05:11:56.801Z,99.90
2019-03-20T05:14:24.880Z,99.90
2019-03-20T05:16:52.159Z,99.90
2019-03-20T05:19:20.926Z,99.90
2019-03-20T05:21:59.232Z,99.90
2019-03-20T05:24:27.223Z,99.90
2019-03-20T05:26:55.384Z,99.90
2019-03-20T05:29:25.065Z,99.90
2019-03-20T05:31:52.227Z,99.90
2019-03-20T05:34:20.431Z,99.90
2019-03-20T05:36:48.134Z,99.90
2019-03-20T05:39:16.077Z,99.90
2019-03-20T05:41:43.802Z,99.90
2019-03-20T05:44:11.583Z,99.90
2019-03-20T05:46:40.537Z,99.90
2019-03-20T05:49:07.929Z,99.90
2019-03-20T05:51:35.449Z,99.90
2019-03-20T05:54:03.650Z,99.90
2019-03-20T05:56:32.153Z,99.90
2019-03-20T05:59:01.076Z,99.90
2019-03-20T06:01:28.547Z,99.90
2019-03-20T06:03:58.802Z,99.90
2019-03-20T06:06:27.236Z,99.90
2019-03-20T06:08:55.776Z,99.90
2019-03-20T06:11:23.233Z,99.90
2019-03-20T06:13:51.354Z,99.90
2019-03-20T06:16:18.975Z,99.90
2019-03-20T06:18:47.281Z,99.90
2019-03-20T06:21:15.159Z,99.90
2019-03-20T06:23:42.930Z,99.90
2019-03-20T06:26:10.566Z,99.90
2019-03-20T06:28:37.960Z,99.90
2019-03-20T06:31:05.451Z,99.90
2019-03-20T06:33:33.423Z,99.90
2019-03-20T06:36:01.140Z,99.90
2019-03-20T06:38:28.700Z,99.90
2019-03-20T06:40:57.740Z,99.90
2019-03-20T06:43:25.011Z,99.90
2019-03-20T06:45:52.572Z,99.90
2019-03-20T06:48:20.816Z,99.90
2019-03-20T06:50:48.377Z,99.90
2019-03-20T06:53:16.209Z,99.90
2019-03-20T06:55:44.038Z,99.90
2019-03-20T06:58:11.190Z,99.90
2019-03-20T07:00:51.024Z,99.90
2019-03-20T07:03:35.158Z,99.90
2019-03-20T07:06:34.093Z,99.90
2019-03-20T07:09:23.996Z,99.90
2019-03-20T07:11:52.191Z,99.90
2019-03-20T07:14:19.621Z,99.90
2019-03-20T07:16:47.526Z,99.90
2019-03-20T07:19:15.096Z,99.90
2019-03-20T07:21:42.575Z,99.90
2019-03-20T07:24:09.929Z,99.90
2019-03-20T07:26:37.542Z,99.90
2019-03-20T07:29:04.815Z,99.90
2019-03-20T07:31:32.344Z,99.90
2019-03-20T07:34:00.136Z,99.90
2019-03-20T07:36:28.512Z,99.90
2019-03-20T07:38:56.642Z,99.90
2019-03-20T07:41:24.172Z,99.90
2019-03-20T07:43:51.773Z,99.90
2019-03-20T07:46:20.161Z,99.90
2019-03-20T07:48:50.583Z,99.90
2019-03-20T07:51:17.990Z,99.90
2019-03-20T07:53:45.471Z,99.90
2019-03-20T07:56:13.822Z,99.90
2019-03-20T07:58:43.461Z,99.90
2019-03-20T08:01:10.759Z,99.90
2019-03-20T08:03:38.365Z,99.90
2019-03-20T08:06:05.807Z,99.90
2019-03-20T08:08:33.403Z,99.90
2019-03-20T08:11:00.829Z,99.90
2019-03-20T08:13:28.851Z,99.90
2019-03-20T08:15:56.983Z,99.90
2019-03-20T08:18:25.668Z,99.90
2019-03-20T08:20:53.301Z,99.90
2019-03-20T08:23:20.599Z,99.90
2019-03-20T08:25:48.266Z,99.90
2019-03-20T08:28:18.388Z,99.90
2019-03-20T08:30:46.811Z,99.90
2019-03-20T08:33:14.490Z,99.90
2019-03-20T08:35:42.313Z,99.90
2019-03-20T08:38:18.344Z,99.90
2019-03-20T08:40:40.078Z,99.90
2019-03-20T08:43:07.447Z,99.90
2019-03-20T08:45:34.880Z,99.90
2019-03-20T08:48:03.226Z,99.90
2019-03-20T08:50:32.044Z,99.90
2019-03-20T08:52:59.615Z,99.90
2019-03-20T08:55:27.436Z,99.90
2019-03-20T08:57:54.823Z,99.90
2019-03-20T09:00:22.641Z,99.90
2019-03-20T09:02:50.503Z,99.90
2019-03-20T09:05:21.516Z,99.90
2019-03-20T09:07:49.566Z,99.90
2019-03-20T09:10:18.642Z,99.90
2019-03-20T09:12:46.403Z,99.90
2019-03-20T09:15:15.128Z,99.90
2019-03-20T09:17:42.949Z,99.90
2019-03-20T09:20:12.788Z,99.90
2019-03-20T09:22:40.790Z,99.90
2019-03-20T09:25:11.168Z,99.90
2019-03-20T09:27:38.865Z,99.90
2019-03-20T09:30:13.944Z,99.90
2019-03-20T09:32:42.003Z,99.90
2019-03-20T09:35:09.933Z,91.80
2019-03-20T09:37:37.900Z,97.60
2019-03-20T09:40:07.032Z,99.90
2019-03-20T09:42:34.900Z,97.50
2019-03-20T09:45:03.337Z,97.20
2019-03-20T09:47:30.835Z,99.90
2019-03-20T09:49:58.167Z,93.10
2019-03-20T09:52:25.966Z,93.20
2019-03-20T09:54:55.412Z,91.90
2019-03-20T09:57:23.338Z,85.80
2019-03-20T09:59:50.924Z,92.20
2019-03-20T10:02:18.213Z,93.80
2019-03-20T10:04:45.512Z,92.50
2019-03-20T10:07:13.545Z,80.60
2019-03-20T10:09:41.481Z,88.20
2019-03-20T10:12:08.960Z,84.80
2019-03-20T10:14:36.946Z,91.00
2019-03-20T10:17:04.466Z,76.70
2019-03-20T10:19:32.339Z,93.60
2019-03-20T10:21:59.789Z,67.40
2019-03-20T10:24:27.488Z,67.50
2019-03-20T10:26:55.473Z,69.80
2019-03-20T10:29:22.855Z,69.70
2019-03-20T10:31:50.730Z,67.50
2019-03-20T10:34:18.627Z,73.10
2019-03-20T10:36:46.171Z,66.80
2019-03-20T10:39:14.022Z,58.50
2019-03-20T10:41:42.003Z,57.80
2019-03-20T10:44:09.861Z,72.10
2019-03-20T10:46:37.741Z,60.00
2019-03-20T10:49:06.007Z,59.40
2019-03-20T10:51:33.530Z,59.30
2019-03-20T10:54:00.792Z,56.70
2019-03-20T10:56:28.920Z,56.50
2019-03-20T10:58:56.802Z,56.10
2019-03-20T11:01:24.527Z,58.20
2019-03-20T11:03:52.299Z,53.30
2019-03-20T11:06:19.776Z,50.90
2019-03-20T11:08:47.356Z,53.00
2019-03-20T11:11:26.601Z,53.10
2019-03-20T11:13:45.494Z,50.20
2019-03-20T11:16:12.919Z,48.50
2019-03-20T11:18:41.107Z,48.70
2019-03-20T11:21:08.806Z,49.30
2019-03-20T11:23:36.116Z,47.10
2019-03-20T11:26:03.531Z,46.90
2019-03-20T11:28:31.268Z,47.90
2019-03-20T11:30:59.386Z,48.20
2019-03-20T11:33:27.974Z,52.10
2019-03-20T11:35:57.242Z,47.30
2019-03-20T11:38:26.482Z,49.00
2019-03-20T11:40:54.400Z,49.00
2019-03-20T11:43:21.995Z,49.00
2019-03-20T11:45:49.389Z,54.50
2019-03-20T11:48:21.498Z,48.80
2019-03-20T11:50:49.897Z,48.40
2019-03-20T11:53:17.747Z,49.20
2019-03-20T11:55:45.901Z,49.10
2019-03-20T11:58:14.796Z,47.00
2019-03-20T12:00:42.748Z,47.30
2019-03-20T12:03:10.451Z,46.60
2019-03-20T12:05:38.366Z,50.30
2019-03-20T12:08:06.026Z,48.10
2019-03-20T12:10:33.905Z,47.80
2019-03-20T12:13:01.896Z,56.80
2019-03-20T12:15:29.319Z,48.30
2019-03-20T12:17:57.693Z,47.70
2019-03-20T12:20:25.597Z,46.70
2019-03-20T12:22:53.274Z,56.30
2019-03-20T12:25:24.040Z,53.70
2019-03-20T12:27:51.450Z,53.00
2019-03-20T12:30:22.053Z,48.00
2019-03-20T12:32:49.688Z,50.40
2019-03-20T12:35:17.866Z,47.10
2019-03-20T12:37:45.491Z,47.80
2019-03-20T12:40:25.562Z,49.10
2019-03-20T12:42:53.662Z,48.80
2019-03-20T12:45:24.520Z,49.90
2019-03-20T12:47:52.097Z,49.50
2019-03-20T12:50:19.897Z,49.10
2019-03-20T12:52:50.686Z,46.50
2019-03-20T12:55:18.568Z,47.40
2019-03-20T12:57:46.803Z,46.80
2019-03-20T13:00:17.273Z,48.60
2019-03-20T13:02:44.977Z,70.70
2019-03-20T13:05:13.967Z,52.60
2019-03-20T13:07:41.620Z,47.50
2019-03-20T13:10:12.125Z,51.30
2019-03-20T13:12:39.464Z,50.20
2019-03-20T13:15:10.200Z,51.70
2019-03-20T13:17:38.512Z,56.40
2019-03-20T13:20:07.136Z,52.60
2019-03-20T13:22:34.909Z,54.50
2019-03-20T13:25:03.799Z,47.00
2019-03-20T13:27:33.797Z,58.20
2019-03-20T13:30:01.149Z,76.00
2019-03-20T13:32:28.521Z,59.50
2019-03-20T13:34:56.205Z,50.20
2019-03-20T13:37:24.134Z,49.40
2019-03-20T13:39:51.961Z,50.10
2019-03-20T13:42:19.644Z,51.00
2019-03-20T13:44:47.207Z,49.10
2019-03-20T13:47:15.475Z,50.60
2019-03-20T13:49:43.595Z,50.00
2019-03-20T13:52:11.272Z,52.60
2019-03-20T13:54:38.950Z,52.70
2019-03-20T13:57:06.922Z,54.40
2019-03-20T13:59:34.792Z,52.60
2019-03-20T14:02:02.158Z,49.80
2019-03-20T14:04:29.964Z,52.80
2019-03-20T14:06:57.633Z,51.70
2019-03-20T14:09:25.440Z,51.40
2019-03-20T14:11:52.882Z,54.70
2019-03-20T14:14:20.427Z,65.00
2019-03-20T14:16:48.413Z,60.00
2019-03-20T14:19:15.987Z,53.40
2019-03-20T14:21:44.020Z,51.60
2019-03-20T14:24:11.418Z,58.80
2019-03-20T14:26:39.663Z,59.30
2019-03-20T14:29:07.074Z,58.00
2019-03-20T14:31:34.994Z,56.10
2019-03-20T14:34:02.668Z,52.70
2019-03-20T14:36:31.557Z,52.70
2019-03-20T14:38:59.630Z,68.40
2019-03-20T14:41:27.299Z,72.70
2019-03-20T14:43:54.892Z,54.10
2019-03-20T14:46:22.568Z,63.80
2019-03-20T14:48:50.370Z,60.30
2019-03-20T14:51:18.172Z,53.80
2019-03-20T14:53:45.492Z,56.70
2019-03-20T14:56:12.987Z,56.10
2019-03-20T14:58:40.824Z,58.20
2019-03-20T15:01:08.688Z,60.00
2019-03-20T15:03:37.029Z,53.10
2019-03-20T15:06:04.942Z,53.40
2019-03-20T15:08:32.881Z,53.30
2019-03-20T15:11:00.799Z,54.80
2019-03-20T15:13:35.694Z,52.70
2019-03-20T15:16:09.178Z,56.40
2019-03-20T15:18:37.740Z,58.10
2019-03-20T15:21:05.572Z,62.40
2019-03-20T15:23:36.245Z,56.70
2019-03-20T15:26:04.827Z,55.90
2019-03-20T15:28:32.566Z,57.50
2019-03-20T15:31:00.790Z,76.30
2019-03-20T15:33:28.141Z,67.30
2019-03-20T15:35:55.981Z,59.80
2019-03-20T15:38:23.694Z,62.00
2019-03-20T15:40:56.155Z,59.00
2019-03-20T15:43:21.423Z,57.80
2019-03-20T15:45:49.680Z,60.30
2019-03-20T15:48:17.984Z,60.30
2019-03-20T15:51:04.713Z,63.60
2019-03-20T15:53:49.962Z,59.70
2019-03-20T15:56:28.611Z,59.80
2019-03-20T15:59:17.947Z,66.00
2019-03-20T16:02:07.594Z,66.10
2019-03-20T16:04:53.266Z,68.00
2019-03-20T16:07:34.035Z,72.00
2019-03-20T16:10:21.044Z,70.60
2019-03-20T16:12:51.485Z,71.90
2019-03-20T16:15:19.633Z,74.50
2019-03-20T16:17:47.316Z,77.50
2019-03-20T16:20:15.798Z,75.80
2019-03-20T16:22:43.716Z,76.80
2019-03-20T16:25:12.597Z,77.50
2019-03-20T16:27:40.655Z,82.30
2019-03-20T16:30:12.681Z,82.10
2019-03-20T16:32:40.495Z,81.70
2019-03-20T16:35:08.945Z,94.10
2019-03-20T16:37:36.843Z,90.80
2019-03-20T16:40:07.435Z,90.00
2019-03-20T16:42:35.553Z,88.90
2019-03-20T16:45:04.948Z,89.30
2019-03-20T16:47:33.115Z,90.90
2019-03-20T16:50:00.535Z,92.10
2019-03-20T16:52:28.582Z,92.30
2019-03-20T16:54:56.177Z,91.20
2019-03-20T16:57:24.203Z,92.30
2019-03-20T16:59:52.547Z,91.00
2019-03-20T17:02:20.887Z,93.40
2019-03-20T17:04:48.696Z,92.40
2019-03-20T17:07:16.154Z,93.30
2019-03-20T17:09:44.577Z,92.90
2019-03-20T17:12:12.206Z,95.70
2019-03-20T17:14:41.776Z,94.20
2019-03-20T17:17:09.511Z,98.00
2019-03-20T17:19:37.292Z,95.10
2019-03-20T17:22:05.257Z,99.90
2019-03-20T17:24:33.327Z,96.50
2019-03-20T17:27:01.136Z,97.70
2019-03-20T17:29:29.530Z,97.00
2019-03-20T17:31:57.649Z,96.70
2019-03-20T17:34:24.909Z,97.10
2019-03-20T17:36:52.908Z,99.40
2019-03-20T17:39:20.948Z,99.90
2019-03-20T17:41:48.828Z,99.90
2019-03-20T17:44:16.423Z,99.90
2019-03-20T17:46:44.742Z,99.90
2019-03-20T17:49:12.270Z,99.90
2019-03-20T17:51:39.714Z,99.90
2019-03-20T17:54:07.213Z,99.90
2019-03-20T17:56:35.517Z,99.90
2019-03-20T17:59:03.190Z,99.90
2019-03-20T18:01:30.880Z,99.90
2019-03-20T18:03:58.194Z,99.90
2019-03-20T18:06:25.767Z,99.90
2019-03-20T18:08:54.159Z,99.90
2019-03-20T18:11:21.728Z,99.90
2019-03-20T18:13:49.460Z,99.90
2019-03-20T18:16:17.430Z,99.90
2019-03-20T18:18:44.963Z,99.90
2019-03-20T18:21:12.647Z,99.90
2019-03-20T18:23:40.755Z,99.90
2019-03-20T18:26:08.351Z,99.90
2019-03-20T18:28:35.649Z,99.90
2019-03-20T18:31:03.891Z,99.90
2019-03-20T18:33:31.304Z,99.90
2019-03-20T18:35:59.422Z,99.90
2019-03-20T18:38:26.893Z,99.90
2019-03-20T18:40:54.174Z,99.90
2019-03-20T18:43:21.531Z,99.90
2019-03-20T18:45:49.689Z,99.90
2019-03-20T18:48:17.975Z,99.90
2019-03-20T18:50:45.616Z,99.90
2019-03-20T18:53:13.581Z,99.90
2019-03-20T18:55:41.132Z,99.90
2019-03-20T18:58:08.658Z,99.90
2019-03-20T19:00:37.310Z,99.90
2019-03-20T19:03:05.522Z,99.90
2019-03-20T19:05:44.547Z,99.90
2019-03-20T19:08:13.128Z,99.90
2019-03-20T19:10:40.884Z,99.90
2019-03-20T19:13:08.765Z,99.90
2019-03-20T19:15:36.580Z,99.90
2019-03-20T19:18:04.522Z,99.90
2019-03-20T19:20:32.657Z,99.90
2019-03-20T19:23:00.650Z,99.90
2019-03-20T19:25:28.741Z,99.90
2019-03-20T19:27:56.238Z,99.90
2019-03-20T19:30:24.038Z,99.90
2019-03-20T19:32:52.417Z,99.90
2019-03-20T19:35:20.471Z,99.90
2019-03-20T19:37:48.207Z,99.90
2019-03-20T19:40:16.040Z,99.90
2019-03-20T19:42:43.714Z,99.90
2019-03-20T19:45:12.016Z,99.90
2019-03-20T19:47:40.064Z,99.90
2019-03-20T19:50:10.842Z,99.90
2019-03-20T19:52:38.692Z,99.90
2019-03-20T19:55:06.903Z,99.90
2019-03-20T19:57:35.213Z,99.90
2019-03-20T20:00:03.933Z,99.90
2019-03-20T20:02:32.057Z,99.90
2019-03-20T20:04:59.699Z,99.90
2019-03-20T20:07:27.589Z,99.90
2019-03-20T20:09:57.646Z,99.90
2019-03-20T20:12:31.300Z,99.90
2019-03-20T20:14:54.966Z,99.90
2019-03-20T20:17:22.456Z,99.90
2019-03-20T20:19:50.019Z,99.90
2019-03-20T20:22:18.100Z,99.90
2019-03-20T20:24:46.874Z,99.90
2019-03-20T20:27:14.402Z,99.90
2019-03-20T20:29:42.315Z,99.90
2019-03-20T20:32:10.818Z,99.90
2019-03-20T20:34:38.940Z,99.90
2019-03-20T20:37:07.173Z,99.90
2019-03-20T20:39:35.317Z,99.90
2019-03-20T20:42:03.126Z,99.90
2019-03-20T20:44:31.105Z,99.90
2019-03-20T20:46:58.971Z,99.90
2019-03-20T20:49:26.279Z,99.90
2019-03-20T20:51:54.033Z,99.90
2019-03-20T20:54:22.554Z,99.90
2019-03-20T20:56:49.902Z,99.90
2019-03-20T20:59:17.310Z,99.90
2019-03-20T21:01:45.530Z,99.90
2019-03-20T21:04:13.298Z,99.90
2019-03-20T21:06:41.128Z,99.90
2019-03-20T21:09:08.556Z,99.90
2019-03-20T21:11:36.324Z,99.90
2019-03-20T21:14:03.912Z,99.90
2019-03-20T21:16:32.181Z,99.90
2019-03-20T21:19:35.005Z,99.90
2019-03-20T21:22:59.838Z,99.90
2019-03-20T21:25:28.337Z,99.90
2019-03-20T21:28:58.488Z,99.90
2019-03-20T21:31:49.173Z,99.90
2019-03-20T21:35:35.399Z,99.90
2019-03-20T21:38:09.674Z,99.90
2019-03-20T21:41:35.215Z,99.90
2019-03-20T21:45:18.826Z,99.90
2019-03-20T21:47:53.713Z,99.90
2019-03-20T21:51:08.035Z,99.90
2019-03-20T21:54:40.805Z,99.90
2019-03-20T21:58:08.791Z,99.90
2019-03-20T22:01:51.307Z,99.90
2019-03-20T22:04:20.453Z,99.90
2019-03-20T22:07:08.419Z,99.90
2019-03-20T22:10:33.064Z,99.90
2019-03-20T22:13:59.553Z,99.90
2019-03-20T22:17:50.258Z,99.90
2019-03-20T22:20:53.681Z,99.90
2019-03-20T22:24:23.556Z,99.90
2019-03-20T22:27:34.837Z,99.90
2019-03-20T22:30:05.186Z,99.90
2019-03-20T22:33:45.376Z,99.90
2019-03-20T22:36:25.621Z,99.90
2019-03-20T22:39:59.921Z,99.90
2019-03-20T22:42:53.702Z,99.90
2019-03-20T22:46:32.012Z,99.90
2019-03-20T22:50:00.949Z,99.90
2019-03-20T22:53:33.042Z,99.90
2019-03-20T22:57:01.256Z,99.90
2019-03-20T22:59:30.218Z,99.90
2019-03-20T23:02:13.499Z,99.90
2019-03-20T23:04:49.620Z,99.90
2019-03-20T23:07:22.067Z,99.90
2019-03-20T23:09:50.771Z,99.90
2019-03-20T23:12:19.894Z,99.90
2019-03-20T23:14:48.847Z,99.90
2019-03-20T23:17:18.136Z,99.90
2019-03-20T23:19:48.003Z,99.90
2019-03-20T23:22:19.424Z,99.90
2019-03-20T23:24:48.249Z,99.90
2019-03-20T23:27:27.350Z,99.90
2019-03-20T23:29:55.798Z,99.90
2019-03-20T23:32:24.602Z,99.90
2019-03-20T23:34:54.155Z,99.90
2019-03-20T23:37:23.779Z,99.90
2019-03-20T23:39:52.555Z,99.90
2019-03-20T23:42:23.346Z,99.90
2019-03-20T23:44:52.446Z,99.90
2019-03-20T23:47:42.006Z,99.90
2019-03-20T23:50:11.137Z,99.90
2019-03-20T23:52:39.395Z,99.90
2019-03-20T23:55:09.637Z,99.90
2019-03-20T23:57:37.991Z,99.90
